sensor_id;sensor_type;location;lat;lon;timestamp;temperature;humidity
10447;DHT22;5271;44.422;26.092;2023-05-09T00:01:58;20.20;94.00
10447;DHT22;5271;44.422;26.092;2023-05-09T00:04:25;20.10;94.00
10447;DHT22;5271;44.422;26.092;2023-05-09T00:06:52;20.10;94.10
10447;DHT22;5271;44.422;26.092;2023-05-09T00:09:19;20.00;94.10
10447;DHT22;5271;44.422;26.092;2023-05-09T00:11:47;20.00;94.20
10447;DHT22;5271;44.422;26.092;2023-05-09T00:14:14;19.90;94.30
10447;DHT22;5271;44.422;26.092;2023-05-09T00:16:42;20.00;94.30
10447;DHT22;5271;44.422;26.092;2023-05-09T00:19:09;19.90;94.20
10447;DHT22;5271;44.422;26.092;2023-05-09T00:21:37;19.90;94.20
10447;DHT22;5271;44.422;26.092;2023-05-09T00:24:05;19.90;94.10
10447;DHT22;5271;44.422;26.092;2023-05-09T00:26:32;19.90;94.10
10447;DHT22;5271;44.422;26.092;2023-05-09T00:29:00;19.90;94.10
10447;DHT22;5271;44.422;26.092;2023-05-09T00:31:27;20.00;94.10
10447;DHT22;5271;44.422;26.092;2023-05-09T00:33:53;20.00;94.00
10447;DHT22;5271;44.422;26.092;2023-05-09T00:36:20;19.90;94.00
10447;DHT22;5271;44.422;26.092;2023-05-09T00:38:47;19.90;94.10
10447;DHT22;5271;44.422;26.092;2023-05-09T00:41:14;19.90;94.00
10447;DHT22;5271;44.422;26.092;2023-05-09T00:43:41;20.00;93.90
10447;DHT22;5271;44.422;26.092;2023-05-09T00:46:09;20.00;93.90
10447;DHT22;5271;44.422;26.092;2023-05-09T00:48:36;20.00;93.90
10447;DHT22;5271;44.422;26.092;2023-05-09T00:51:03;19.90;94.00
10447;DHT22;5271;44.422;26.092;2023-05-09T00:53:30;19.90;94.10
10447;DHT22;5271;44.422;26.092;2023-05-09T00:55:59;19.80;94.20
10447;DHT22;5271;44.422;26.092;2023-05-09T00:58:26;19.70;94.20
10447;DHT22;5271;44.422;26.092;2023-05-09T01:00:53;19.70;94.20
10447;DHT22;5271;44.422;26.092;2023-05-09T01:03:21;19.70;94.20
10447;DHT22;5271;44.422;26.092;2023-05-09T01:05:53;19.70;94.20
10447;DHT22;5271;44.422;26.092;2023-05-09T01:08:33;19.70;94.20
10447;DHT22;5271;44.422;26.092;2023-05-09T01:11:08;19.80;94.10
10447;DHT22;5271;44.422;26.092;2023-05-09T01:13:43;19.90;94.00
10447;DHT22;5271;44.422;26.092;2023-05-09T01:16:20;19.90;94.00
10447;DHT22;5271;44.422;26.092;2023-05-09T01:18:54;19.90;94.10
10447;DHT22;5271;44.422;26.092;2023-05-09T01:21:27;19.90;94.10
10447;DHT22;5271;44.422;26.092;2023-05-09T01:24:18;19.90;94.20
10447;DHT22;5271;44.422;26.092;2023-05-09T01:27:08;19.90;94.20
10447;DHT22;5271;44.422;26.092;2023-05-09T01:29:41;19.90;94.20
10447;DHT22;5271;44.422;26.092;2023-05-09T01:32:13;20.00;94.40
10447;DHT22;5271;44.422;26.092;2023-05-09T01:34:43;20.00;94.00
10447;DHT22;5271;44.422;26.092;2023-05-09T01:37:12;20.00;94.00
10447;DHT22;5271;44.422;26.092;2023-05-09T01:39:43;20.00;94.00
10447;DHT22;5271;44.422;26.092;2023-05-09T01:42:11;20.00;94.00
10447;DHT22;5271;44.422;26.092;2023-05-09T01:44:41;19.90;94.00
10447;DHT22;5271;44.422;26.092;2023-05-09T01:47:10;19.80;94.10
10447;DHT22;5271;44.422;26.092;2023-05-09T01:49:39;19.80;94.20
10447;DHT22;5271;44.422;26.092;2023-05-09T01:52:08;19.90;94.20
10447;DHT22;5271;44.422;26.092;2023-05-09T01:54:37;19.90;94.10
10447;DHT22;5271;44.422;26.092;2023-05-09T01:57:06;20.00;94.10
10447;DHT22;5271;44.422;26.092;2023-05-09T01:59:33;19.90;94.00
10447;DHT22;5271;44.422;26.092;2023-05-09T02:02:03;20.00;94.00
10447;DHT22;5271;44.422;26.092;2023-05-09T02:04:33;20.00;94.00
10447;DHT22;5271;44.422;26.092;2023-05-09T02:07:02;20.00;94.00
10447;DHT22;5271;44.422;26.092;2023-05-09T02:09:29;20.00;93.90
10447;DHT22;5271;44.422;26.092;2023-05-09T02:11:56;20.10;93.90
10447;DHT22;5271;44.422;26.092;2023-05-09T02:14:23;20.00;93.90
10447;DHT22;5271;44.422;26.092;2023-05-09T02:16:50;20.00;93.90
10447;DHT22;5271;44.422;26.092;2023-05-09T02:19:18;20.00;93.90
10447;DHT22;5271;44.422;26.092;2023-05-09T02:21:45;20.00;93.90
10447;DHT22;5271;44.422;26.092;2023-05-09T02:24:12;20.00;94.00
10447;DHT22;5271;44.422;26.092;2023-05-09T02:26:39;19.90;94.00
10447;DHT22;5271;44.422;26.092;2023-05-09T02:29:06;19.80;94.10
10447;DHT22;5271;44.422;26.092;2023-05-09T02:31:34;19.80;94.10
10447;DHT22;5271;44.422;26.092;2023-05-09T02:34:02;19.80;94.40
10447;DHT22;5271;44.422;26.092;2023-05-09T02:36:32;19.80;94.20
10447;DHT22;5271;44.422;26.092;2023-05-09T02:38:59;19.80;94.50
10447;DHT22;5271;44.422;26.092;2023-05-09T02:41:26;19.80;94.20
10447;DHT22;5271;44.422;26.092;2023-05-09T02:43:53;19.70;94.20
10447;DHT22;5271;44.422;26.092;2023-05-09T02:46:20;19.70;94.30
10447;DHT22;5271;44.422;26.092;2023-05-09T02:48:47;19.70;94.30
10447;DHT22;5271;44.422;26.092;2023-05-09T02:51:14;19.70;94.30
10447;DHT22;5271;44.422;26.092;2023-05-09T02:53:42;19.70;94.30
10447;DHT22;5271;44.422;26.092;2023-05-09T02:56:09;19.80;94.40
10447;DHT22;5271;44.422;26.092;2023-05-09T02:58:37;19.70;94.30
10447;DHT22;5271;44.422;26.092;2023-05-09T03:01:04;19.80;94.30
10447;DHT22;5271;44.422;26.092;2023-05-09T03:03:31;19.70;94.30
10447;DHT22;5271;44.422;26.092;2023-05-09T03:05:59;19.70;94.50
10447;DHT22;5271;44.422;26.092;2023-05-09T03:08:26;19.60;94.80
10447;DHT22;5271;44.422;26.092;2023-05-09T03:10:54;19.60;95.00
10447;DHT22;5271;44.422;26.092;2023-05-09T03:13:21;19.60;95.20
10447;DHT22;5271;44.422;26.092;2023-05-09T03:15:48;19.50;95.20
10447;DHT22;5271;44.422;26.092;2023-05-09T03:18:15;19.60;95.30
10447;DHT22;5271;44.422;26.092;2023-05-09T03:20:42;19.60;95.30
10447;DHT22;5271;44.422;26.092;2023-05-09T03:23:08;19.60;95.50
10447;DHT22;5271;44.422;26.092;2023-05-09T03:25:35;19.70;95.30
10447;DHT22;5271;44.422;26.092;2023-05-09T03:28:04;19.70;95.30
10447;DHT22;5271;44.422;26.092;2023-05-09T03:30:30;19.70;95.40
10447;DHT22;5271;44.422;26.092;2023-05-09T03:32:57;19.60;95.40
10447;DHT22;5271;44.422;26.092;2023-05-09T03:35:24;19.60;95.50
10447;DHT22;5271;44.422;26.092;2023-05-09T03:37:51;19.70;95.60
10447;DHT22;5271;44.422;26.092;2023-05-09T03:40:18;19.60;95.60
10447;DHT22;5271;44.422;26.092;2023-05-09T03:42:45;19.60;95.70
10447;DHT22;5271;44.422;26.092;2023-05-09T03:45:13;19.60;95.90
10447;DHT22;5271;44.422;26.092;2023-05-09T03:47:40;19.50;95.90
10447;DHT22;5271;44.422;26.092;2023-05-09T03:50:08;19.50;96.00
10447;DHT22;5271;44.422;26.092;2023-05-09T03:52:35;19.40;96.20
10447;DHT22;5271;44.422;26.092;2023-05-09T03:55:03;19.30;96.30
10447;DHT22;5271;44.422;26.092;2023-05-09T03:57:30;19.20;96.50
10447;DHT22;5271;44.422;26.092;2023-05-09T03:59:57;19.20;96.60
10447;DHT22;5271;44.422;26.092;2023-05-09T04:02:25;19.20;96.70
10447;DHT22;5271;44.422;26.092;2023-05-09T04:04:52;19.10;96.90
10447;DHT22;5271;44.422;26.092;2023-05-09T04:07:19;19.10;97.00
10447;DHT22;5271;44.422;26.092;2023-05-09T04:09:46;19.10;97.00
10447;DHT22;5271;44.422;26.092;2023-05-09T04:12:14;19.00;97.10
10447;DHT22;5271;44.422;26.092;2023-05-09T04:14:40;19.00;97.10
10447;DHT22;5271;44.422;26.092;2023-05-09T04:17:07;19.10;97.00
10447;DHT22;5271;44.422;26.092;2023-05-09T04:19:36;19.20;97.00
10447;DHT22;5271;44.422;26.092;2023-05-09T04:22:03;19.20;97.10
10447;DHT22;5271;44.422;26.092;2023-05-09T04:24:30;19.10;97.10
10447;DHT22;5271;44.422;26.092;2023-05-09T04:26:57;19.10;97.10
10447;DHT22;5271;44.422;26.092;2023-05-09T04:29:24;19.10;97.30
10447;DHT22;5271;44.422;26.092;2023-05-09T04:31:51;19.10;97.20
10447;DHT22;5271;44.422;26.092;2023-05-09T04:34:18;19.10;97.40
10447;DHT22;5271;44.422;26.092;2023-05-09T04:36:46;19.10;97.40
10447;DHT22;5271;44.422;26.092;2023-05-09T04:39:13;19.10;97.30
10447;DHT22;5271;44.422;26.092;2023-05-09T04:41:40;19.20;97.20
10447;DHT22;5271;44.422;26.092;2023-05-09T04:44:08;19.20;97.20
10447;DHT22;5271;44.422;26.092;2023-05-09T04:46:36;19.20;97.20
10447;DHT22;5271;44.422;26.092;2023-05-09T04:49:02;19.20;97.40
10447;DHT22;5271;44.422;26.092;2023-05-09T04:51:29;19.10;97.40
10447;DHT22;5271;44.422;26.092;2023-05-09T04:53:57;19.10;97.60
10447;DHT22;5271;44.422;26.092;2023-05-09T04:56:25;19.10;97.60
10447;DHT22;5271;44.422;26.092;2023-05-09T04:58:51;19.10;97.60
10447;DHT22;5271;44.422;26.092;2023-05-09T05:01:18;19.10;97.70
10447;DHT22;5271;44.422;26.092;2023-05-09T05:03:45;19.10;97.90
10447;DHT22;5271;44.422;26.092;2023-05-09T05:06:12;19.00;97.80
10447;DHT22;5271;44.422;26.092;2023-05-09T05:08:39;19.10;97.80
10447;DHT22;5271;44.422;26.092;2023-05-09T05:11:07;19.10;97.80
10447;DHT22;5271;44.422;26.092;2023-05-09T05:13:34;19.20;98.00
10447;DHT22;5271;44.422;26.092;2023-05-09T05:16:01;19.20;97.90
10447;DHT22;5271;44.422;26.092;2023-05-09T05:18:27;19.20;97.90
10447;DHT22;5271;44.422;26.092;2023-05-09T05:20:54;19.20;97.80
10447;DHT22;5271;44.422;26.092;2023-05-09T05:23:21;19.30;97.70
10447;DHT22;5271;44.422;26.092;2023-05-09T05:25:48;19.30;97.40
10447;DHT22;5271;44.422;26.092;2023-05-09T05:28:16;19.30;97.30
10447;DHT22;5271;44.422;26.092;2023-05-09T05:30:43;19.30;97.40
10447;DHT22;5271;44.422;26.092;2023-05-09T05:33:10;19.30;97.50
10447;DHT22;5271;44.422;26.092;2023-05-09T05:35:37;19.30;97.50
10447;DHT22;5271;44.422;26.092;2023-05-09T05:38:03;19.30;97.50
10447;DHT22;5271;44.422;26.092;2023-05-09T05:40:30;19.40;97.50
10447;DHT22;5271;44.422;26.092;2023-05-09T05:42:57;19.40;97.40
10447;DHT22;5271;44.422;26.092;2023-05-09T05:45:25;19.50;97.40
10447;DHT22;5271;44.422;26.092;2023-05-09T05:47:54;19.50;97.60
10447;DHT22;5271;44.422;26.092;2023-05-09T05:50:21;19.50;97.30
10447;DHT22;5271;44.422;26.092;2023-05-09T05:52:48;19.60;97.10
10447;DHT22;5271;44.422;26.092;2023-05-09T05:55:15;19.60;96.90
10447;DHT22;5271;44.422;26.092;2023-05-09T05:57:42;19.60;96.90
10447;DHT22;5271;44.422;26.092;2023-05-09T06:00:10;19.60;96.80
10447;DHT22;5271;44.422;26.092;2023-05-09T06:02:41;19.60;96.80
10447;DHT22;5271;44.422;26.092;2023-05-09T06:05:09;19.60;96.80
10447;DHT22;5271;44.422;26.092;2023-05-09T06:07:36;19.70;96.20
10447;DHT22;5271;44.422;26.092;2023-05-09T06:10:03;19.70;95.80
10447;DHT22;5271;44.422;26.092;2023-05-09T06:12:30;19.70;95.90
10447;DHT22;5271;44.422;26.092;2023-05-09T06:14:57;19.70;95.90
10447;DHT22;5271;44.422;26.092;2023-05-09T06:17:23;19.60;96.00
10447;DHT22;5271;44.422;26.092;2023-05-09T06:19:52;19.60;96.10
10447;DHT22;5271;44.422;26.092;2023-05-09T06:22:19;19.60;96.30
10447;DHT22;5271;44.422;26.092;2023-05-09T06:24:45;19.60;96.10
10447;DHT22;5271;44.422;26.092;2023-05-09T06:27:12;19.60;96.10
10447;DHT22;5271;44.422;26.092;2023-05-09T06:29:39;19.60;96.20
10447;DHT22;5271;44.422;26.092;2023-05-09T06:32:06;19.60;96.20
10447;DHT22;5271;44.422;26.092;2023-05-09T06:34:33;19.70;96.00
10447;DHT22;5271;44.422;26.092;2023-05-09T06:37:01;19.70;96.10
10447;DHT22;5271;44.422;26.092;2023-05-09T06:39:28;19.80;96.20
10447;DHT22;5271;44.422;26.092;2023-05-09T06:41:55;19.80;96.10
10447;DHT22;5271;44.422;26.092;2023-05-09T06:44:21;19.80;96.10
10447;DHT22;5271;44.422;26.092;2023-05-09T06:46:48;19.90;96.20
10447;DHT22;5271;44.422;26.092;2023-05-09T06:49:15;19.90;96.20
10447;DHT22;5271;44.422;26.092;2023-05-09T06:51:42;19.90;96.00
10447;DHT22;5271;44.422;26.092;2023-05-09T06:54:10;20.00;96.00
10447;DHT22;5271;44.422;26.092;2023-05-09T06:56:37;20.10;95.90
10447;DHT22;5271;44.422;26.092;2023-05-09T06:59:04;20.10;96.00
10447;DHT22;5271;44.422;26.092;2023-05-09T07:01:32;20.20;95.80
10447;DHT22;5271;44.422;26.092;2023-05-09T07:03:59;20.20;95.80
10447;DHT22;5271;44.422;26.092;2023-05-09T07:06:25;20.30;95.60
10447;DHT22;5271;44.422;26.092;2023-05-09T07:08:52;20.30;95.30
10447;DHT22;5271;44.422;26.092;2023-05-09T07:11:20;20.40;95.20
10447;DHT22;5271;44.422;26.092;2023-05-09T07:13:47;20.40;95.00
10447;DHT22;5271;44.422;26.092;2023-05-09T07:16:14;20.40;95.20
10447;DHT22;5271;44.422;26.092;2023-05-09T07:18:42;20.40;95.20
10447;DHT22;5271;44.422;26.092;2023-05-09T07:21:09;20.50;95.20
10447;DHT22;5271;44.422;26.092;2023-05-09T07:23:36;20.70;95.40
10447;DHT22;5271;44.422;26.092;2023-05-09T07:26:03;20.80;95.00
10447;DHT22;5271;44.422;26.092;2023-05-09T07:28:31;21.00;94.50
10447;DHT22;5271;44.422;26.092;2023-05-09T07:30:58;21.10;94.40
10447;DHT22;5271;44.422;26.092;2023-05-09T07:33:25;21.20;94.40
10447;DHT22;5271;44.422;26.092;2023-05-09T07:35:52;21.40;94.00
10447;DHT22;5271;44.422;26.092;2023-05-09T07:38:19;21.60;93.80
10447;DHT22;5271;44.422;26.092;2023-05-09T07:40:45;21.80;93.10
10447;DHT22;5271;44.422;26.092;2023-05-09T07:43:12;21.90;92.90
10447;DHT22;5271;44.422;26.092;2023-05-09T07:45:40;22.00;92.70
10447;DHT22;5271;44.422;26.092;2023-05-09T07:48:07;21.90;92.50
10447;DHT22;5271;44.422;26.092;2023-05-09T07:50:34;22.00;92.30
10447;DHT22;5271;44.422;26.092;2023-05-09T07:53:01;22.00;92.10
10447;DHT22;5271;44.422;26.092;2023-05-09T07:55:28;21.90;92.40
10447;DHT22;5271;44.422;26.092;2023-05-09T07:57:55;22.00;92.20
10447;DHT22;5271;44.422;26.092;2023-05-09T08:00:22;21.90;91.90
10447;DHT22;5271;44.422;26.092;2023-05-09T08:02:51;21.90;91.80
10447;DHT22;5271;44.422;26.092;2023-05-09T08:05:18;21.90;91.70
10447;DHT22;5271;44.422;26.092;2023-05-09T08:07:45;22.00;91.60
10447;DHT22;5271;44.422;26.092;2023-05-09T08:10:12;22.00;91.80
10447;DHT22;5271;44.422;26.092;2023-05-09T08:12:39;22.10;91.80
10447;DHT22;5271;44.422;26.092;2023-05-09T08:15:07;22.20;91.40
10447;DHT22;5271;44.422;26.092;2023-05-09T08:17:34;22.30;91.50
10447;DHT22;5271;44.422;26.092;2023-05-09T08:20:03;22.30;91.40
10447;DHT22;5271;44.422;26.092;2023-05-09T08:22:32;22.40;90.90
10447;DHT22;5271;44.422;26.092;2023-05-09T08:24:59;22.50;90.90
10447;DHT22;5271;44.422;26.092;2023-05-09T08:27:26;22.50;90.80
10447;DHT22;5271;44.422;26.092;2023-05-09T08:29:52;22.50;91.40
10447;DHT22;5271;44.422;26.092;2023-05-09T08:32:19;22.60;91.10
10447;DHT22;5271;44.422;26.092;2023-05-09T08:34:46;22.70;90.70
10447;DHT22;5271;44.422;26.092;2023-05-09T08:37:14;22.70;90.90
10447;DHT22;5271;44.422;26.092;2023-05-09T08:39:41;22.80;90.60
10447;DHT22;5271;44.422;26.092;2023-05-09T08:42:08;22.80;90.70
10447;DHT22;5271;44.422;26.092;2023-05-09T08:44:35;22.80;90.40
10447;DHT22;5271;44.422;26.092;2023-05-09T08:47:03;23.00;90.50
10447;DHT22;5271;44.422;26.092;2023-05-09T08:49:30;23.00;90.00
10447;DHT22;5271;44.422;26.092;2023-05-09T08:51:58;23.00;89.60
10447;DHT22;5271;44.422;26.092;2023-05-09T08:54:27;22.90;89.70
10447;DHT22;5271;44.422;26.092;2023-05-09T08:56:54;23.10;89.90
10447;DHT22;5271;44.422;26.092;2023-05-09T08:59:23;23.10;89.50
10447;DHT22;5271;44.422;26.092;2023-05-09T09:01:52;23.10;88.80
10447;DHT22;5271;44.422;26.092;2023-05-09T09:04:19;23.20;89.40
10447;DHT22;5271;44.422;26.092;2023-05-09T09:06:46;23.20;89.50
10447;DHT22;5271;44.422;26.092;2023-05-09T09:09:14;23.30;88.20
10447;DHT22;5271;44.422;26.092;2023-05-09T09:11:44;23.40;88.20
10447;DHT22;5271;44.422;26.092;2023-05-09T09:14:15;23.40;87.00
10447;DHT22;5271;44.422;26.092;2023-05-09T09:16:46;23.30;86.70
10447;DHT22;5271;44.422;26.092;2023-05-09T09:19:16;23.30;86.80
10447;DHT22;5271;44.422;26.092;2023-05-09T09:21:45;23.30;87.10
10447;DHT22;5271;44.422;26.092;2023-05-09T09:24:13;23.20;87.80
10447;DHT22;5271;44.422;26.092;2023-05-09T09:26:47;23.10;88.00
10447;DHT22;5271;44.422;26.092;2023-05-09T09:29:15;23.10;88.10
10447;DHT22;5271;44.422;26.092;2023-05-09T09:31:43;23.20;87.90
10447;DHT22;5271;44.422;26.092;2023-05-09T09:34:12;23.20;87.70
10447;DHT22;5271;44.422;26.092;2023-05-09T09:36:39;23.10;88.20
10447;DHT22;5271;44.422;26.092;2023-05-09T09:39:06;23.10;88.60
10447;DHT22;5271;44.422;26.092;2023-05-09T09:41:34;23.20;88.70
10447;DHT22;5271;44.422;26.092;2023-05-09T09:44:07;23.20;87.70
10447;DHT22;5271;44.422;26.092;2023-05-09T09:46:44;23.20;87.50
10447;DHT22;5271;44.422;26.092;2023-05-09T09:49:12;23.20;87.90
10447;DHT22;5271;44.422;26.092;2023-05-09T09:51:40;23.10;87.60
10447;DHT22;5271;44.422;26.092;2023-05-09T09:54:07;23.00;88.20
10447;DHT22;5271;44.422;26.092;2023-05-09T09:56:38;23.00;88.40
10447;DHT22;5271;44.422;26.092;2023-05-09T09:59:11;23.00;88.00
10447;DHT22;5271;44.422;26.092;2023-05-09T10:01:53;22.90;88.30
10447;DHT22;5271;44.422;26.092;2023-05-09T10:04:20;22.80;88.50
10447;DHT22;5271;44.422;26.092;2023-05-09T10:06:51;22.80;88.40
10447;DHT22;5271;44.422;26.092;2023-05-09T10:09:20;22.80;88.70
10447;DHT22;5271;44.422;26.092;2023-05-09T10:11:49;22.80;89.00
10447;DHT22;5271;44.422;26.092;2023-05-09T10:14:21;22.80;88.90
10447;DHT22;5271;44.422;26.092;2023-05-09T10:16:49;22.80;88.70
10447;DHT22;5271;44.422;26.092;2023-05-09T10:19:18;22.80;88.40
10447;DHT22;5271;44.422;26.092;2023-05-09T10:21:50;22.80;88.00
10447;DHT22;5271;44.422;26.092;2023-05-09T10:24:21;22.80;88.00
10447;DHT22;5271;44.422;26.092;2023-05-09T10:26:49;22.80;87.20
10447;DHT22;5271;44.422;26.092;2023-05-09T10:29:21;22.80;87.50
10447;DHT22;5271;44.422;26.092;2023-05-09T10:31:53;22.80;87.20
10447;DHT22;5271;44.422;26.092;2023-05-09T10:34:21;22.80;87.30
10447;DHT22;5271;44.422;26.092;2023-05-09T10:36:49;22.80;86.90
10447;DHT22;5271;44.422;26.092;2023-05-09T10:39:16;22.80;86.30
10447;DHT22;5271;44.422;26.092;2023-05-09T10:41:44;22.80;85.50
10447;DHT22;5271;44.422;26.092;2023-05-09T10:44:14;22.60;86.00
10447;DHT22;5271;44.422;26.092;2023-05-09T10:46:43;22.60;86.60
10447;DHT22;5271;44.422;26.092;2023-05-09T10:49:11;22.50;87.00
10447;DHT22;5271;44.422;26.092;2023-05-09T10:51:38;22.50;87.10
10447;DHT22;5271;44.422;26.092;2023-05-09T10:54:12;22.50;86.60
10447;DHT22;5271;44.422;26.092;2023-05-09T10:56:40;22.50;86.20
10447;DHT22;5271;44.422;26.092;2023-05-09T10:59:33;22.50;86.40
10447;DHT22;5271;44.422;26.092;2023-05-09T11:02:02;22.50;86.80
10447;DHT22;5271;44.422;26.092;2023-05-09T11:04:30;22.60;86.60
10447;DHT22;5271;44.422;26.092;2023-05-09T11:06:58;22.60;86.80
10447;DHT22;5271;44.422;26.092;2023-05-09T11:09:30;22.60;87.00
10447;DHT22;5271;44.422;26.092;2023-05-09T11:12:00;22.60;86.30
10447;DHT22;5271;44.422;26.092;2023-05-09T11:14:38;22.60;86.70
10447;DHT22;5271;44.422;26.092;2023-05-09T11:17:08;22.70;86.60
10447;DHT22;5271;44.422;26.092;2023-05-09T11:19:36;22.70;86.60
10447;DHT22;5271;44.422;26.092;2023-05-09T11:22:14;22.70;86.70
10447;DHT22;5271;44.422;26.092;2023-05-09T11:24:44;22.70;87.00
10447;DHT22;5271;44.422;26.092;2023-05-09T11:27:17;22.70;88.10
10447;DHT22;5271;44.422;26.092;2023-05-09T11:29:47;22.60;87.70
10447;DHT22;5271;44.422;26.092;2023-05-09T11:32:17;22.60;88.30
10447;DHT22;5271;44.422;26.092;2023-05-09T11:34:44;22.60;88.60
10447;DHT22;5271;44.422;26.092;2023-05-09T11:37:12;22.60;89.00
10447;DHT22;5271;44.422;26.092;2023-05-09T11:39:56;22.50;89.20
10447;DHT22;5271;44.422;26.092;2023-05-09T11:42:23;22.60;89.50
10447;DHT22;5271;44.422;26.092;2023-05-09T11:44:51;22.60;89.50
10447;DHT22;5271;44.422;26.092;2023-05-09T11:47:20;22.60;89.30
10447;DHT22;5271;44.422;26.092;2023-05-09T11:49:47;22.60;89.30
10447;DHT22;5271;44.422;26.092;2023-05-09T11:52:14;22.60;90.10
10447;DHT22;5271;44.422;26.092;2023-05-09T11:54:41;22.60;90.50
10447;DHT22;5271;44.422;26.092;2023-05-09T11:57:08;22.70;90.50
10447;DHT22;5271;44.422;26.092;2023-05-09T11:59:35;22.70;90.70
10447;DHT22;5271;44.422;26.092;2023-05-09T12:02:04;22.70;91.10
10447;DHT22;5271;44.422;26.092;2023-05-09T12:04:33;22.70;91.10
10447;DHT22;5271;44.422;26.092;2023-05-09T12:07:01;22.70;91.50
10447;DHT22;5271;44.422;26.092;2023-05-09T12:09:29;22.80;91.40
10447;DHT22;5271;44.422;26.092;2023-05-09T12:11:57;22.70;91.30
10447;DHT22;5271;44.422;26.092;2023-05-09T12:14:27;22.70;91.40
10447;DHT22;5271;44.422;26.092;2023-05-09T12:16:54;22.70;91.60
10447;DHT22;5271;44.422;26.092;2023-05-09T12:19:22;22.60;91.20
10447;DHT22;5271;44.422;26.092;2023-05-09T12:21:53;22.60;91.50
10447;DHT22;5271;44.422;26.092;2023-05-09T12:24:21;22.50;91.60
10447;DHT22;5271;44.422;26.092;2023-05-09T12:26:48;22.50;92.00
10447;DHT22;5271;44.422;26.092;2023-05-09T12:29:16;22.40;92.10
10447;DHT22;5271;44.422;26.092;2023-05-09T12:31:43;22.30;92.50
10447;DHT22;5271;44.422;26.092;2023-05-09T12:34:10;22.30;92.90
10447;DHT22;5271;44.422;26.092;2023-05-09T12:36:38;22.30;93.10
10447;DHT22;5271;44.422;26.092;2023-05-09T12:39:08;22.30;93.00
10447;DHT22;5271;44.422;26.092;2023-05-09T12:41:42;22.20;93.40
10447;DHT22;5271;44.422;26.092;2023-05-09T12:44:09;22.20;93.90
10447;DHT22;5271;44.422;26.092;2023-05-09T12:46:36;22.20;94.30
10447;DHT22;5271;44.422;26.092;2023-05-09T12:49:02;22.20;94.10
10447;DHT22;5271;44.422;26.092;2023-05-09T12:51:29;22.20;93.70
10447;DHT22;5271;44.422;26.092;2023-05-09T12:54:02;22.20;93.80
10447;DHT22;5271;44.422;26.092;2023-05-09T12:56:33;22.10;93.90
10447;DHT22;5271;44.422;26.092;2023-05-09T12:59:00;22.00;93.90
10447;DHT22;5271;44.422;26.092;2023-05-09T13:01:28;21.80;94.30
10447;DHT22;5271;44.422;26.092;2023-05-09T13:04:00;21.80;94.60
10447;DHT22;5271;44.422;26.092;2023-05-09T13:06:29;21.70;95.00
10447;DHT22;5271;44.422;26.092;2023-05-09T13:08:57;21.60;95.00
10447;DHT22;5271;44.422;26.092;2023-05-09T13:11:25;21.50;94.60
10447;DHT22;5271;44.422;26.092;2023-05-09T13:13:54;21.40;94.60
10447;DHT22;5271;44.422;26.092;2023-05-09T13:16:21;21.30;94.40
10447;DHT22;5271;44.422;26.092;2023-05-09T13:18:48;21.20;94.50
10447;DHT22;5271;44.422;26.092;2023-05-09T13:21:15;21.10;94.60
10447;DHT22;5271;44.422;26.092;2023-05-09T13:23:42;21.10;94.50
10447;DHT22;5271;44.422;26.092;2023-05-09T13:26:09;21.00;94.80
10447;DHT22;5271;44.422;26.092;2023-05-09T13:28:36;20.90;94.80
10447;DHT22;5271;44.422;26.092;2023-05-09T13:31:05;20.80;95.10
10447;DHT22;5271;44.422;26.092;2023-05-09T13:33:32;20.70;95.30
10447;DHT22;5271;44.422;26.092;2023-05-09T13:35:59;20.70;95.90
10447;DHT22;5271;44.422;26.092;2023-05-09T13:38:26;20.60;95.90
10447;DHT22;5271;44.422;26.092;2023-05-09T13:40:55;20.50;96.10
10447;DHT22;5271;44.422;26.092;2023-05-09T13:43:22;20.60;96.30
10447;DHT22;5271;44.422;26.092;2023-05-09T13:45:48;20.50;96.40
10447;DHT22;5271;44.422;26.092;2023-05-09T13:48:17;20.60;96.50
10447;DHT22;5271;44.422;26.092;2023-05-09T13:50:44;20.50;96.80
10447;DHT22;5271;44.422;26.092;2023-05-09T13:53:11;20.50;96.90
10447;DHT22;5271;44.422;26.092;2023-05-09T13:55:38;20.50;97.40
10447;DHT22;5271;44.422;26.092;2023-05-09T13:58:05;20.40;97.60
10447;DHT22;5271;44.422;26.092;2023-05-09T14:00:32;20.40;98.10
10447;DHT22;5271;44.422;26.092;2023-05-09T14:03:00;20.40;98.10
10447;DHT22;5271;44.422;26.092;2023-05-09T14:05:30;20.40;98.50
10447;DHT22;5271;44.422;26.092;2023-05-09T14:07:56;20.40;98.50
10447;DHT22;5271;44.422;26.092;2023-05-09T14:10:23;20.50;98.50
10447;DHT22;5271;44.422;26.092;2023-05-09T14:12:51;20.40;98.90
10447;DHT22;5271;44.422;26.092;2023-05-09T14:15:19;20.40;99.30
10447;DHT22;5271;44.422;26.092;2023-05-09T14:17:45;20.40;99.40
10447;DHT22;5271;44.422;26.092;2023-05-09T14:20:12;20.40;99.60
10447;DHT22;5271;44.422;26.092;2023-05-09T14:22:41;20.40;99.90
10447;DHT22;5271;44.422;26.092;2023-05-09T14:25:08;20.40;99.90
10447;DHT22;5271;44.422;26.092;2023-05-09T14:27:35;20.30;99.90
10447;DHT22;5271;44.422;26.092;2023-05-09T14:30:02;20.30;99.90
10447;DHT22;5271;44.422;26.092;2023-05-09T14:32:29;20.30;99.90
10447;DHT22;5271;44.422;26.092;2023-05-09T14:34:56;20.40;99.90
10447;DHT22;5271;44.422;26.092;2023-05-09T14:37:23;20.40;99.90
10447;DHT22;5271;44.422;26.092;2023-05-09T14:39:51;20.40;99.90
10447;DHT22;5271;44.422;26.092;2023-05-09T14:42:18;20.30;99.90
10447;DHT22;5271;44.422;26.092;2023-05-09T14:44:45;20.20;99.90
10447;DHT22;5271;44.422;26.092;2023-05-09T14:47:11;20.20;99.90
10447;DHT22;5271;44.422;26.092;2023-05-09T14:49:38;20.10;99.90
10447;DHT22;5271;44.422;26.092;2023-05-09T14:52:05;20.20;99.90
10447;DHT22;5271;44.422;26.092;2023-05-09T14:54:32;20.10;99.90
10447;DHT22;5271;44.422;26.092;2023-05-09T14:57:00;20.10;99.90
10447;DHT22;5271;44.422;26.092;2023-05-09T14:59:29;20.10;99.90
10447;DHT22;5271;44.422;26.092;2023-05-09T15:01:56;20.10;99.90
10447;DHT22;5271;44.422;26.092;2023-05-09T15:04:23;20.10;99.90
10447;DHT22;5271;44.422;26.092;2023-05-09T15:06:52;20.20;99.90
10447;DHT22;5271;44.422;26.092;2023-05-09T15:09:19;20.30;99.90
10447;DHT22;5271;44.422;26.092;2023-05-09T15:11:47;20.20;99.90
10447;DHT22;5271;44.422;26.092;2023-05-09T15:14:15;20.20;99.90
10447;DHT22;5271;44.422;26.092;2023-05-09T15:16:42;20.20;99.90
10447;DHT22;5271;44.422;26.092;2023-05-09T15:19:08;20.30;99.90
10447;DHT22;5271;44.422;26.092;2023-05-09T15:21:35;20.30;99.90
10447;DHT22;5271;44.422;26.092;2023-05-09T15:24:03;20.20;99.90
10447;DHT22;5271;44.422;26.092;2023-05-09T15:26:30;20.20;99.90
10447;DHT22;5271;44.422;26.092;2023-05-09T15:28:57;20.20;99.90
10447;DHT22;5271;44.422;26.092;2023-05-09T15:31:28;20.10;99.90
10447;DHT22;5271;44.422;26.092;2023-05-09T15:33:54;20.10;99.90
10447;DHT22;5271;44.422;26.092;2023-05-09T15:36:21;20.00;99.90